sensor_id;sensor_type;location;lat;lon;timestamp;pressure;altitude;pressure_sealevel;temperature;humidity
5522;BME280;2783;48.730;8.006;2023-04-28T00:01:44;99816.72;;;15.58;91.32
5522;BME280;2783;48.730;8.006;2023-04-28T00:04:09;99812.38;;;15.55;91.29
5522;BME280;2783;48.730;8.006;2023-04-28T00:06:35;99814.28;;;15.53;91.11
5522;BME280;2783;48.730;8.006;2023-04-28T00:09:01;99820.59;;;15.52;90.57
5522;BME280;2783;48.730;8.006;2023-04-28T00:11:26;99808.34;;;15.48;91.14
5522;BME280;2783;48.730;8.006;2023-04-28T00:13:51;99778.28;;;15.26;90.81
5522;BME280;2783;48.730;8.006;2023-04-28T00:16:17;99816.53;;;15.45;90.72
5522;BME280;2783;48.730;8.006;2023-04-28T00:18:42;99813.94;;;15.44;91.00
5522;BME280;2783;48.730;8.006;2023-04-28T00:21:07;99818.59;;;15.40;90.30
5522;BME280;2783;48.730;8.006;2023-04-28T00:23:32;99814.25;;;15.38;90.56
5522;BME280;2783;48.730;8.006;2023-04-28T00:25:58;99814.25;;;15.38;90.41
5522;BME280;2783;48.730;8.006;2023-04-28T00:28:23;99809.91;;;15.35;90.41
5522;BME280;2783;48.730;8.006;2023-04-28T00:30:48;99804.53;;;15.35;90.27
5522;BME280;2783;48.730;8.006;2023-04-28T00:33:13;99794.69;;;15.36;89.37
5522;BME280;2783;48.730;8.006;2023-04-28T00:35:39;99799.03;;;15.38;90.51
5522;BME280;2783;48.730;8.006;2023-04-28T00:38:05;99800.72;;;15.41;89.82
5522;BME280;2783;48.730;8.006;2023-04-28T00:40:31;99793.53;;;15.41;89.76
5522;BME280;2783;48.730;8.006;2023-04-28T00:42:57;99800.44;;;15.45;89.52
5522;BME280;2783;48.730;8.006;2023-04-28T00:45:22;99791.47;;;15.46;89.94
5522;BME280;2783;48.730;8.006;2023-04-28T00:47:47;99793.09;;;15.49;89.81
5522;BME280;2783;48.730;8.006;2023-04-28T00:50:12;99787.47;;;15.53;88.99
5522;BME280;2783;48.730;8.006;2023-04-28T00:52:38;99777.44;;;15.57;90.10
5522;BME280;2783;48.730;8.006;2023-04-28T00:55:03;99766.72;;;15.57;89.23
5522;BME280;2783;48.730;8.006;2023-04-28T00:57:29;99765.00;;;15.56;90.37
5522;BME280;2783;48.730;8.006;2023-04-28T00:59:55;99776.59;;;15.56;89.79
5522;BME280;2783;48.730;8.006;2023-04-28T01:02:20;99778.22;;;15.59;89.83
5522;BME280;2783;48.730;8.006;2023-04-28T01:04:46;99774.84;;;15.55;89.83
5522;BME280;2783;48.730;8.006;2023-04-28T01:07:11;99767.22;;;15.63;89.10
5522;BME280;2783;48.730;8.006;2023-04-28T01:09:37;99766.13;;;15.67;89.14
5522;BME280;2783;48.730;8.006;2023-04-28T01:12:02;99773.09;;;15.70;89.07
5522;BME280;2783;48.730;8.006;2023-04-28T01:14:27;99773.06;;;15.71;88.70
5522;BME280;2783;48.730;8.006;2023-04-28T01:16:53;99774.16;;;15.67;89.67
5522;BME280;2783;48.730;8.006;2023-04-28T01:19:19;99767.22;;;15.63;88.97
5522;BME280;2783;48.730;8.006;2023-04-28T01:21:46;99770.97;;;15.61;89.56
5522;BME280;2783;48.730;8.006;2023-04-28T01:24:11;99771.06;;;15.59;90.46
5522;BME280;2783;48.730;8.006;2023-04-28T01:26:36;99777.34;;;15.58;90.79
5522;BME280;2783;48.730;8.006;2023-04-28T01:29:02;99781.78;;;15.59;90.47
5522;BME280;2783;48.730;8.006;2023-04-28T01:31:27;99784.56;;;15.58;90.68
5522;BME280;2783;48.730;8.006;2023-04-28T01:33:54;99789.91;;;15.58;91.02
5522;BME280;2783;48.730;8.006;2023-04-28T01:36:20;99797.16;;;15.56;91.85
5522;BME280;2783;48.730;8.006;2023-04-28T01:38:46;99796.47;;;15.52;92.67
5522;BME280;2783;48.730;8.006;2023-04-28T01:41:11;99799.25;;;15.51;92.06
5522;BME280;2783;48.730;8.006;2023-04-28T01:43:37;99796.47;;;15.52;92.80
5522;BME280;2783;48.730;8.006;2023-04-28T01:46:02;99800.72;;;15.56;92.84
5522;BME280;2783;48.730;8.006;2023-04-28T01:48:27;99792.69;;;15.56;92.00
5522;BME280;2783;48.730;8.006;2023-04-28T01:50:52;99798.03;;;15.56;92.76
5522;BME280;2783;48.730;8.006;2023-04-28T01:53:18;99793.78;;;15.52;92.17
5522;BME280;2783;48.730;8.006;2023-04-28T01:55:44;99799.34;;;15.49;91.59
5522;BME280;2783;48.730;8.006;2023-04-28T01:58:10;99798.53;;;15.47;91.02
5522;BME280;2783;48.730;8.006;2023-04-28T02:00:35;99792.25;;;15.48;90.30
5522;BME280;2783;48.730;8.006;2023-04-28T02:03:00;99796.81;;;15.46;89.99
5522;BME280;2783;48.730;8.006;2023-04-28T02:05:25;99805.19;;;15.40;89.75
5522;BME280;2783;48.730;8.006;2023-04-28T02:07:51;99803.22;;;15.44;88.80
5522;BME280;2783;48.730;8.006;2023-04-28T02:10:16;99804.78;;;15.48;88.88
5522;BME280;2783;48.730;8.006;2023-04-28T02:12:41;99811.03;;;15.48;87.75
5522;BME280;2783;48.730;8.006;2023-04-28T02:15:07;99816.88;;;15.39;88.01
5522;BME280;2783;48.730;8.006;2023-04-28T02:17:33;99817.66;;;15.41;87.60
5522;BME280;2783;48.730;8.006;2023-04-28T02:19:58;99826.06;;;15.51;86.91
5522;BME280;2783;48.730;8.006;2023-04-28T02:22:23;99822.31;;;15.53;85.75
5522;BME280;2783;48.730;8.006;2023-04-28T02:24:49;99826.56;;;15.57;85.86
5522;BME280;2783;48.730;8.006;2023-04-28T02:27:15;99836.19;;;15.61;86.65
5522;BME280;2783;48.730;8.006;2023-04-28T02:29:40;99835.94;;;15.66;86.79
5522;BME280;2783;48.730;8.006;2023-04-28T02:32:06;99834.25;;;15.63;86.64
5522;BME280;2783;48.730;8.006;2023-04-28T02:34:32;99827.78;;;15.67;86.67
5522;BME280;2783;48.730;8.006;2023-04-28T02:36:57;99818.19;;;15.63;86.06
5522;BME280;2783;48.730;8.006;2023-04-28T02:39:22;99814.28;;;15.69;86.39
5522;BME280;2783;48.730;8.006;2023-04-28T02:41:50;99811.34;;;15.73;85.45
5522;BME280;2783;48.730;8.006;2023-04-28T02:44:16;99806.69;;;15.77;85.83
5522;BME280;2783;48.730;8.006;2023-04-28T02:46:41;99804.44;;;15.69;85.28
5522;BME280;2783;48.730;8.006;2023-04-28T02:49:07;99805.06;;;15.74;85.58
5522;BME280;2783;48.730;8.006;2023-04-28T02:51:32;99805.28;;;15.86;84.38
5522;BME280;2783;48.730;8.006;2023-04-28T02:53:57;99805.09;;;15.89;84.87
5522;BME280;2783;48.730;8.006;2023-04-28T02:56:22;99804.09;;;15.91;84.91
5522;BME280;2783;48.730;8.006;2023-04-28T02:58:48;99798.53;;;15.94;84.38
5522;BME280;2783;48.730;8.006;2023-04-28T03:01:13;99798.88;;;15.88;85.44
5522;BME280;2783;48.730;8.006;2023-04-28T03:03:38;99799.75;;;15.89;85.25
5522;BME280;2783;48.730;8.006;2023-04-28T03:06:04;99787.31;;;15.88;85.57
5522;BME280;2783;48.730;8.006;2023-04-28T03:08:29;99776.38;;;15.91;84.75
5522;BME280;2783;48.730;8.006;2023-04-28T03:10:54;99788.84;;;15.92;85.40
5522;BME280;2783;48.730;8.006;2023-04-28T03:13:19;99789.00;;;15.89;85.35
5522;BME280;2783;48.730;8.006;2023-04-28T03:15:45;99790.59;;;15.93;86.03
5522;BME280;2783;48.730;8.006;2023-04-28T03:18:10;99786.66;;;15.98;85.38
5522;BME280;2783;48.730;8.006;2023-04-28T03:20:36;99782.44;;;15.94;86.07
5522;BME280;2783;48.730;8.006;2023-04-28T03:23:01;99776.91;;;15.97;85.87
5522;BME280;2783;48.730;8.006;2023-04-28T03:25:26;99770.69;;;15.81;87.60
5522;BME280;2783;48.730;8.006;2023-04-28T03:27:51;99762.06;;;15.76;87.09
5522;BME280;2783;48.730;8.006;2023-04-28T03:30:17;99762.38;;;15.86;86.33
5522;BME280;2783;48.730;8.006;2023-04-28T03:32:42;99752.25;;;15.91;86.11
5522;BME280;2783;48.730;8.006;2023-04-28T03:35:07;99757.34;;;15.95;85.91
5522;BME280;2783;48.730;8.006;2023-04-28T03:37:33;99760.63;;;16.00;85.77
5522;BME280;2783;48.730;8.006;2023-04-28T03:39:58;99762.44;;;16.00;86.54
5522;BME280;2783;48.730;8.006;2023-04-28T03:42:23;99750.06;;;15.97;86.49
5522;BME280;2783;48.730;8.006;2023-04-28T03:44:49;99749.00;;;16.00;87.15
5522;BME280;2783;48.730;8.006;2023-04-28T03:47:14;99741.94;;;15.99;86.95
5522;BME280;2783;48.730;8.006;2023-04-28T03:49:39;99743.84;;;15.97;87.13
5522;BME280;2783;48.730;8.006;2023-04-28T03:52:04;99736.94;;;15.93;88.86
5522;BME280;2783;48.730;8.006;2023-04-28T03:54:30;99739.72;;;15.91;89.22
5522;BME280;2783;48.730;8.006;2023-04-28T03:56:55;99729.13;;;15.88;88.89
5522;BME280;2783;48.730;8.006;2023-04-28T03:59:21;99728.63;;;15.81;89.04
5522;BME280;2783;48.730;8.006;2023-04-28T04:01:47;99723.22;;;15.67;90.23
5522;BME280;2783;48.730;8.006;2023-04-28T04:04:12;99719.56;;;15.68;91.19
5522;BME280;2783;48.730;8.006;2023-04-28T04:06:37;99724.19;;;15.66;91.54
5522;BME280;2783;48.730;8.006;2023-04-28T04:09:02;99729.97;;;15.74;90.90
5522;BME280;2783;48.730;8.006;2023-04-28T04:11:28;99730.91;;;15.73;91.44
5522;BME280;2783;48.730;8.006;2023-04-28T04:13:53;99738.94;;;15.73;91.81
5522;BME280;2783;48.730;8.006;2023-04-28T04:16:18;99744.84;;;15.64;92.74
5522;BME280;2783;48.730;8.006;2023-04-28T04:18:43;99738.44;;;15.67;93.51
5522;BME280;2783;48.730;8.006;2023-04-28T04:21:09;99736.81;;;15.64;94.33
5522;BME280;2783;48.730;8.006;2023-04-28T04:23:34;99732.47;;;15.62;94.06
5522;BME280;2783;48.730;8.006;2023-04-28T04:25:59;99725.22;;;15.64;94.30
5522;BME280;2783;48.730;8.006;2023-04-28T04:28:25;99726.09;;;15.64;95.44
5522;BME280;2783;48.730;8.006;2023-04-28T04:30:50;99722.44;;;15.65;94.95
5522;BME280;2783;48.730;8.006;2023-04-28T04:33:15;99724.69;;;15.57;96.15
5522;BME280;2783;48.730;8.006;2023-04-28T04:35:40;99723.50;;;15.63;96.24
5522;BME280;2783;48.730;8.006;2023-04-28T04:38:06;99715.34;;;15.64;96.14
5522;BME280;2783;48.730;8.006;2023-04-28T04:40:31;99719.84;;;15.64;95.67
5522;BME280;2783;48.730;8.006;2023-04-28T04:42:56;99724.00;;;15.69;96.59
5522;BME280;2783;48.730;8.006;2023-04-28T04:45:22;99736.25;;;15.73;96.38
5522;BME280;2783;48.730;8.006;2023-04-28T04:47:47;99734.34;;;15.75;95.84
5522;BME280;2783;48.730;8.006;2023-04-28T04:50:12;99730.56;;;15.79;95.92
5522;BME280;2783;48.730;8.006;2023-04-28T04:52:37;99731.50;;;15.78;96.09
5522;BME280;2783;48.730;8.006;2023-04-28T04:55:03;99731.31;;;15.81;95.98
5522;BME280;2783;48.730;8.006;2023-04-28T04:57:28;99734.97;;;15.80;96.66
5522;BME280;2783;48.730;8.006;2023-04-28T04:59:54;99736.84;;;15.78;96.43
5522;BME280;2783;48.730;8.006;2023-04-28T05:02:19;99736.75;;;15.80;96.41
5522;BME280;2783;48.730;8.006;2023-04-28T05:04:44;99731.59;;;15.77;97.05
5522;BME280;2783;48.730;8.006;2023-04-28T05:07:09;99733.41;;;15.76;97.07
5522;BME280;2783;48.730;8.006;2023-04-28T05:09:35;99736.06;;;15.76;97.25
5522;BME280;2783;48.730;8.006;2023-04-28T05:12:00;99735.94;;;15.79;96.95
5522;BME280;2783;48.730;8.006;2023-04-28T05:14:25;99745.09;;;15.75;97.87
5522;BME280;2783;48.730;8.006;2023-04-28T05:16:51;99739.53;;;15.78;97.17
5522;BME280;2783;48.730;8.006;2023-04-28T05:19:16;99735.06;;;15.79;97.60
5522;BME280;2783;48.730;8.006;2023-04-28T05:21:41;99727.78;;;15.81;98.44
5522;BME280;2783;48.730;8.006;2023-04-28T05:24:07;99732.97;;;15.84;98.13
5522;BME280;2783;48.730;8.006;2023-04-28T05:26:32;99727.59;;;15.84;98.65
5522;BME280;2783;48.730;8.006;2023-04-28T05:28:57;99728.28;;;15.88;98.43
5522;BME280;2783;48.730;8.006;2023-04-28T05:31:22;99719.38;;;15.87;98.89
5522;BME280;2783;48.730;8.006;2023-04-28T05:33:48;99723.94;;;15.85;98.67
5522;BME280;2783;48.730;8.006;2023-04-28T05:36:13;99720.44;;;15.85;99.25
5522;BME280;2783;48.730;8.006;2023-04-28T05:38:40;99715.81;;;15.87;100.00
5522;BME280;2783;48.730;8.006;2023-04-28T05:41:06;99714.69;;;15.91;100.00
5522;BME280;2783;48.730;8.006;2023-04-28T05:43:31;99710.28;;;15.90;100.00
5522;BME280;2783;48.730;8.006;2023-04-28T05:45:56;99711.81;;;15.94;100.00
5522;BME280;2783;48.730;8.006;2023-04-28T05:48:22;99702.50;;;15.85;100.00
5522;BME280;2783;48.730;8.006;2023-04-28T05:50:47;99706.25;;;15.82;100.00
5522;BME280;2783;48.730;8.006;2023-04-28T05:53:12;99709.09;;;15.79;100.00
5522;BME280;2783;48.730;8.006;2023-04-28T05:55:37;99702.88;;;15.79;100.00
5522;BME280;2783;48.730;8.006;2023-04-28T05:58:03;99697.88;;;15.73;100.00
5522;BME280;2783;48.730;8.006;2023-04-28T06:00:28;99697.78;;;15.74;100.00
5522;BME280;2783;48.730;8.006;2023-04-28T06:02:53;99700.69;;;15.86;100.00
5522;BME280;2783;48.730;8.006;2023-04-28T06:05:19;99703.19;;;15.89;100.00
5522;BME280;2783;48.730;8.006;2023-04-28T06:07:44;99704.16;;;15.88;100.00
5522;BME280;2783;48.730;8.006;2023-04-28T06:10:10;99703.00;;;15.92;100.00
5522;BME280;2783;48.730;8.006;2023-04-28T06:12:35;99684.22;;;15.92;100.00
5522;BME280;2783;48.730;8.006;2023-04-28T06:15:01;99693.63;;;15.99;100.00
5522;BME280;2783;48.730;8.006;2023-04-28T06:17:26;99687.59;;;15.95;100.00
5522;BME280;2783;48.730;8.006;2023-04-28T06:19:52;99687.91;;;16.05;100.00
5522;BME280;2783;48.730;8.006;2023-04-28T06:22:18;99689.84;;;16.03;100.00
5522;BME280;2783;48.730;8.006;2023-04-28T06:24:43;99694.44;;;16.15;100.00
5522;BME280;2783;48.730;8.006;2023-04-28T06:27:09;99701.84;;;16.25;100.00
5522;BME280;2783;48.730;8.006;2023-04-28T06:29:34;99704.44;;;16.27;100.00
5522;BME280;2783;48.730;8.006;2023-04-28T06:31:59;99696.97;;;16.32;100.00
5522;BME280;2783;48.730;8.006;2023-04-28T06:34:25;99704.16;;;16.31;100.00
5522;BME280;2783;48.730;8.006;2023-04-28T06:36:54;99696.78;;;16.35;100.00
5522;BME280;2783;48.730;8.006;2023-04-28T06:39:20;99705.41;;;16.40;100.00
5522;BME280;2783;48.730;8.006;2023-04-28T06:41:45;99698.34;;;16.39;100.00
5522;BME280;2783;48.730;8.006;2023-04-28T06:44:11;99703.72;;;16.39;100.00
5522;BME280;2783;48.730;8.006;2023-04-28T06:46:37;99698.16;;;16.42;100.00
5522;BME280;2783;48.730;8.006;2023-04-28T06:49:02;99701.44;;;16.47;100.00
5522;BME280;2783;48.730;8.006;2023-04-28T06:51:27;99705.66;;;16.51;100.00
5522;BME280;2783;48.730;8.006;2023-04-28T06:53:53;99704.53;;;16.55;100.00
5522;BME280;2783;48.730;8.006;2023-04-28T06:56:18;99714.38;;;16.54;100.00
5522;BME280;2783;48.730;8.006;2023-04-28T06:58:44;99719.66;;;16.56;100.00
5522;BME280;2783;48.730;8.006;2023-04-28T07:01:09;99727.41;;;16.46;100.00
5522;BME280;2783;48.730;8.006;2023-04-28T07:03:34;99724.63;;;16.48;100.00
5522;BME280;2783;48.730;8.006;2023-04-28T07:06:00;99722.94;;;16.47;100.00
5522;BME280;2783;48.730;8.006;2023-04-28T07:08:25;99729.16;;;16.47;100.00
5522;BME280;2783;48.730;8.006;2023-04-28T07:10:50;99743.16;;;16.52;100.00
5522;BME280;2783;48.730;8.006;2023-04-28T07:13:16;99736.75;;;16.55;100.00
5522;BME280;2783;48.730;8.006;2023-04-28T07:15:41;99741.13;;;16.56;100.00
5522;BME280;2783;48.730;8.006;2023-04-28T07:18:06;99740.41;;;16.54;100.00
5522;BME280;2783;48.730;8.006;2023-04-28T07:20:32;99745.66;;;16.55;100.00
5522;BME280;2783;48.730;8.006;2023-04-28T07:22:57;99737.41;;;16.58;100.00
5522;BME280;2783;48.730;8.006;2023-04-28T07:25:22;99741.53;;;16.64;100.00
5522;BME280;2783;48.730;8.006;2023-04-28T07:27:47;99745.56;;;16.57;100.00
5522;BME280;2783;48.730;8.006;2023-04-28T07:30:13;99745.19;;;16.63;100.00
5522;BME280;2783;48.730;8.006;2023-04-28T07:32:38;99752.47;;;16.61;100.00
5522;BME280;2783;48.730;8.006;2023-04-28T07:35:03;99752.28;;;16.64;100.00
5522;BME280;2783;48.730;8.006;2023-04-28T07:37:29;99750.94;;;16.71;100.00
5522;BME280;2783;48.730;8.006;2023-04-28T07:39:55;99748.94;;;16.60;100.00
5522;BME280;2783;48.730;8.006;2023-04-28T07:42:20;99755.06;;;16.62;100.00
5522;BME280;2783;48.730;8.006;2023-04-28T07:44:45;99756.41;;;16.69;100.00
5522;BME280;2783;48.730;8.006;2023-04-28T07:47:11;99739.91;;;16.75;100.00
5522;BME280;2783;48.730;8.006;2023-04-28T07:49:36;99757.78;;;16.76;100.00
5522;BME280;2783;48.730;8.006;2023-04-28T07:52:01;99753.75;;;16.83;100.00
5522;BME280;2783;48.730;8.006;2023-04-28T07:54:27;99761.53;;;16.88;100.00
5522;BME280;2783;48.730;8.006;2023-04-28T07:56:52;99763.25;;;16.89;100.00
5522;BME280;2783;48.730;8.006;2023-04-28T07:59:17;99763.72;;;16.95;100.00
5522;BME280;2783;48.730;8.006;2023-04-28T08:01:42;99767.19;;;16.97;100.00
5522;BME280;2783;48.730;8.006;2023-04-28T08:04:08;99769.00;;;17.11;100.00
5522;BME280;2783;48.730;8.006;2023-04-28T08:06:33;99768.22;;;17.09;100.00
5522;BME280;2783;48.730;8.006;2023-04-28T08:09:00;99776.56;;;17.19;100.00
5522;BME280;2783;48.730;8.006;2023-04-28T08:11:26;99773.78;;;17.20;100.00
5522;BME280;2783;48.730;8.006;2023-04-28T08:13:51;99786.66;;;17.29;100.00
5522;BME280;2783;48.730;8.006;2023-04-28T08:16:17;99785.59;;;17.32;100.00
5522;BME280;2783;48.730;8.006;2023-04-28T08:18:43;99790.13;;;17.45;100.00
5522;BME280;2783;48.730;8.006;2023-04-28T08:21:09;99780.72;;;17.52;100.00
5522;BME280;2783;48.730;8.006;2023-04-28T08:23:35;99786.09;;;17.52;100.00
5522;BME280;2783;48.730;8.006;2023-04-28T08:26:00;99799.03;;;17.60;100.00
5522;BME280;2783;48.730;8.006;2023-04-28T08:28:26;99798.19;;;17.59;100.00
5522;BME280;2783;48.730;8.006;2023-04-28T08:30:51;99803.72;;;17.70;100.00
5522;BME280;2783;48.730;8.006;2023-04-28T08:33:18;99800.41;;;17.79;100.00
5522;BME280;2783;48.730;8.006;2023-04-28T08:35:43;99801.84;;;17.85;100.00
5522;BME280;2783;48.730;8.006;2023-04-28T08:38:09;99803.78;;;17.83;100.00
5522;BME280;2783;48.730;8.006;2023-04-28T08:40:38;99801.53;;;17.89;100.00
5522;BME280;2783;48.730;8.006;2023-04-28T08:43:03;99805.41;;;17.85;100.00
5522;BME280;2783;48.730;8.006;2023-04-28T08:45:29;99808.25;;;17.96;100.00
5522;BME280;2783;48.730;8.006;2023-04-28T08:47:54;99806.34;;;17.98;100.00
5522;BME280;2783;48.730;8.006;2023-04-28T08:50:21;99807.28;;;17.97;100.00
5522;BME280;2783;48.730;8.006;2023-04-28T08:52:48;99805.91;;;18.04;100.00
5522;BME280;2783;48.730;8.006;2023-04-28T08:55:16;99813.53;;;18.24;100.00
5522;BME280;2783;48.730;8.006;2023-04-28T08:57:43;99811.63;;;18.26;100.00
5522;BME280;2783;48.730;8.006;2023-04-28T09:00:08;99802.03;;;18.62;100.00
5522;BME280;2783;48.730;8.006;2023-04-28T09:02:34;99802.72;;;18.78;100.00
5522;BME280;2783;48.730;8.006;2023-04-28T09:05:01;99808.22;;;18.89;100.00
5522;BME280;2783;48.730;8.006;2023-04-28T09:07:27;99813.59;;;19.01;100.00
5522;BME280;2783;48.730;8.006;2023-04-28T09:10:08;99810.78;;;19.03;100.00
5522;BME280;2783;48.730;8.006;2023-04-28T09:12:37;99815.56;;;18.99;100.00
5522;BME280;2783;48.730;8.006;2023-04-28T09:15:03;99823.06;;;18.82;100.00
5522;BME280;2783;48.730;8.006;2023-04-28T09:17:33;99824.44;;;18.75;100.00
5522;BME280;2783;48.730;8.006;2023-04-28T09:20:26;99818.00;;;18.90;100.00
5522;BME280;2783;48.730;8.006;2023-04-28T09:22:52;99813.47;;;19.03;100.00
5522;BME280;2783;48.730;8.006;2023-04-28T09:25:18;99807.22;;;18.90;100.00
5522;BME280;2783;48.730;8.006;2023-04-28T09:27:45;99815.44;;;19.01;100.00
5522;BME280;2783;48.730;8.006;2023-04-28T09:30:11;99810.69;;;18.92;100.00
5522;BME280;2783;48.730;8.006;2023-04-28T09:32:36;99807.22;;;18.90;100.00
5522;BME280;2783;48.730;8.006;2023-04-28T09:35:01;99816.00;;;19.06;100.00
5522;BME280;2783;48.730;8.006;2023-04-28T09:37:29;99816.94;;;18.92;100.00
5522;BME280;2783;48.730;8.006;2023-04-28T09:39:55;99817.91;;;18.91;100.00
5522;BME280;2783;48.730;8.006;2023-04-28T09:45:02;99818.69;;;19.31;100.00
5522;BME280;2783;48.730;8.006;2023-04-28T09:47:28;99821.69;;;19.39;100.00
5522;BME280;2783;48.730;8.006;2023-04-28T09:49:58;99818.31;;;19.60;100.00
5522;BME280;2783;48.730;8.006;2023-04-28T09:52:24;99825.09;;;20.02;100.00
5522;BME280;2783;48.730;8.006;2023-04-28T09:54:50;99816.25;;;20.00;99.84
5522;BME280;2783;48.730;8.006;2023-04-28T09:57:15;99814.44;;;20.01;99.38
5522;BME280;2783;48.730;8.006;2023-04-28T09:59:41;99805.97;;;20.05;98.26
5522;BME280;2783;48.730;8.006;2023-04-28T10:02:08;99820.47;;;20.04;98.59
5522;BME280;2783;48.730;8.006;2023-04-28T10:04:33;99809.78;;;20.03;97.83
5522;BME280;2783;48.730;8.006;2023-04-28T10:06:59;99823.53;;;19.87;96.99
5522;BME280;2783;48.730;8.006;2023-04-28T10:09:25;99809.09;;;19.88;98.30
5522;BME280;2783;48.730;8.006;2023-04-28T10:11:52;99815.41;;;20.00;98.43
5522;BME280;2783;48.730;8.006;2023-04-28T10:14:18;99815.13;;;19.92;96.37
5522;BME280;2783;48.730;8.006;2023-04-28T10:16:43;99811.13;;;20.21;96.57
5522;BME280;2783;48.730;8.006;2023-04-28T10:19:09;99816.09;;;20.14;95.16
5522;BME280;2783;48.730;8.006;2023-04-28T10:21:35;99818.13;;;20.23;94.43
5522;BME280;2783;48.730;8.006;2023-04-28T10:24:08;99807.97;;;20.27;94.82
5522;BME280;2783;48.730;8.006;2023-04-28T10:29:22;99808.91;;;20.49;92.82
5522;BME280;2783;48.730;8.006;2023-04-28T10:34:31;99810.38;;;20.77;90.46
5522;BME280;2783;48.730;8.006;2023-04-28T10:36:57;99804.59;;;20.70;89.45
5522;BME280;2783;48.730;8.006;2023-04-28T10:39:23;99802.81;;;20.58;90.20
5522;BME280;2783;48.730;8.006;2023-04-28T10:41:48;99805.00;;;20.53;90.53
5522;BME280;2783;48.730;8.006;2023-04-28T10:47:09;99801.78;;;20.83;89.72
5522;BME280;2783;48.730;8.006;2023-04-28T11:00:34;99789.44;;;21.69;83.94
5522;BME280;2783;48.730;8.006;2023-04-28T11:02:59;99783.53;;;21.86;84.24
5522;BME280;2783;48.730;8.006;2023-04-28T11:05:24;99788.66;;;22.00;81.28
5522;BME280;2783;48.730;8.006;2023-04-28T11:13:26;99774.34;;;22.72;78.58
5522;BME280;2783;48.730;8.006;2023-04-28T11:16:01;99784.03;;;22.23;78.32
5522;BME280;2783;48.730;8.006;2023-04-28T11:18:26;99773.09;;;22.13;80.42
5522;BME280;2783;48.730;8.006;2023-04-28T11:20:52;99766.47;;;22.17;79.48
5522;BME280;2783;48.730;8.006;2023-04-28T11:23:22;99755.22;;;22.94;79.61
5522;BME280;2783;48.730;8.006;2023-04-28T11:25:54;99753.00;;;23.29;75.50
5522;BME280;2783;48.730;8.006;2023-04-28T11:28:20;99754.59;;;22.81;73.70
5522;BME280;2783;48.730;8.006;2023-04-28T11:30:46;99759.59;;;22.65;76.00
5522;BME280;2783;48.730;8.006;2023-04-28T11:33:11;99753.72;;;22.49;77.66
5522;BME280;2783;48.730;8.006;2023-04-28T11:35:40;99764.50;;;22.08;78.47
5522;BME280;2783;48.730;8.006;2023-04-28T11:38:05;99764.06;;;21.70;80.67
5522;BME280;2783;48.730;8.006;2023-04-28T11:40:31;99757.38;;;21.31;84.08
5522;BME280;2783;48.730;8.006;2023-04-28T11:42:56;99749.38;;;21.30;84.87
5522;BME280;2783;48.730;8.006;2023-04-28T11:45:23;99770.41;;;21.26;85.04
5522;BME280;2783;48.730;8.006;2023-04-28T11:47:49;99763.63;;;21.10;86.47
5522;BME280;2783;48.730;8.006;2023-04-28T11:50:14;99750.84;;;21.12;87.24
5522;BME280;2783;48.730;8.006;2023-04-28T11:52:52;99753.00;;;20.84;90.08
5522;BME280;2783;48.730;8.006;2023-04-28T11:55:17;99759.25;;;20.74;91.76
5522;BME280;2783;48.730;8.006;2023-04-28T11:57:42;99758.00;;;20.78;94.48
5522;BME280;2783;48.730;8.006;2023-04-28T12:00:11;99756.44;;;20.86;95.10
5522;BME280;2783;48.730;8.006;2023-04-28T12:02:38;99753.72;;;20.75;95.51
5522;BME280;2783;48.730;8.006;2023-04-28T12:05:06;99751.03;;;20.86;96.50
5522;BME280;2783;48.730;8.006;2023-04-28T12:07:42;99741.00;;;21.00;96.30
5522;BME280;2783;48.730;8.006;2023-04-28T12:10:09;99740.88;;;21.01;96.28
5522;BME280;2783;48.730;8.006;2023-04-28T12:12:34;99745.66;;;21.31;96.22
5522;BME280;2783;48.730;8.006;2023-04-28T12:15:01;99749.75;;;21.36;94.79
5522;BME280;2783;48.730;8.006;2023-04-28T12:17:27;99744.44;;;21.46;94.79
5522;BME280;2783;48.730;8.006;2023-04-28T12:19:56;99751.69;;;21.56;93.96
5522;BME280;2783;48.730;8.006;2023-04-28T12:22:22;99752.28;;;21.60;93.00
5522;BME280;2783;48.730;8.006;2023-04-28T12:25:07;99752.56;;;21.35;91.67
5522;BME280;2783;48.730;8.006;2023-04-28T12:27:33;99762.13;;;21.06;91.13
5522;BME280;2783;48.730;8.006;2023-04-28T12:29:59;99756.06;;;20.80;92.70
5522;BME280;2783;48.730;8.006;2023-04-28T12:32:37;99764.03;;;20.70;94.11
5522;BME280;2783;48.730;8.006;2023-04-28T12:35:07;99764.09;;;20.47;95.81
5522;BME280;2783;48.730;8.006;2023-04-28T12:37:33;99763.94;;;20.37;97.98
5522;BME280;2783;48.730;8.006;2023-04-28T12:39:58;99761.50;;;20.45;100.00
5522;BME280;2783;48.730;8.006;2023-04-28T12:42:24;99762.91;;;20.73;100.00
5522;BME280;2783;48.730;8.006;2023-04-28T12:44:49;99764.94;;;20.93;100.00
5522;BME280;2783;48.730;8.006;2023-04-28T12:47:15;99766.72;;;21.05;99.00
5522;BME280;2783;48.730;8.006;2023-04-28T12:49:42;99766.59;;;21.18;98.84
5522;BME280;2783;48.730;8.006;2023-04-28T12:52:07;99769.53;;;21.26;98.15
5522;BME280;2783;48.730;8.006;2023-04-28T12:54:32;99777.63;;;21.37;98.20
5522;BME280;2783;48.730;8.006;2023-04-28T12:56:58;99778.25;;;21.29;98.46
5522;BME280;2783;48.730;8.006;2023-04-28T12:59:23;99770.03;;;21.20;98.70
5522;BME280;2783;48.730;8.006;2023-04-28T13:01:49;99769.41;;;21.27;98.03
5522;BME280;2783;48.730;8.006;2023-04-28T13:04:15;99772.84;;;21.29;98.36
5522;BME280;2783;48.730;8.006;2023-04-28T13:06:40;99775.94;;;21.36;99.05
5522;BME280;2783;48.730;8.006;2023-04-28T13:09:08;99774.22;;;21.35;97.87
5522;BME280;2783;48.730;8.006;2023-04-28T13:11:34;99771.13;;;21.17;97.71
5522;BME280;2783;48.730;8.006;2023-04-28T13:13:59;99776.13;;;20.88;98.19
5522;BME280;2783;48.730;8.006;2023-04-28T13:16:24;99784.84;;;20.46;99.01
5522;BME280;2783;48.730;8.006;2023-04-28T13:18:52;99776.94;;;20.32;100.00
5522;BME280;2783;48.730;8.006;2023-04-28T13:21:18;99770.16;;;20.27;100.00
5522;BME280;2783;48.730;8.006;2023-04-28T13:23:43;99772.44;;;20.20;100.00
5522;BME280;2783;48.730;8.006;2023-04-28T13:26:08;99774.06;;;20.23;100.00
5522;BME280;2783;48.730;8.006;2023-04-28T13:28:34;99765.34;;;20.07;100.00
5522;BME280;2783;48.730;8.006;2023-04-28T13:31:00;99764.50;;;20.06;100.00
5522;BME280;2783;48.730;8.006;2023-04-28T13:33:25;99766.22;;;20.07;100.00
5522;BME280;2783;48.730;8.006;2023-04-28T13:35:55;99761.06;;;20.04;100.00
5522;BME280;2783;48.730;8.006;2023-04-28T13:38:21;99755.09;;;19.88;100.00